sensor_id;sensor_type;location;lat;lon;timestamp;P1;durP1;ratioP1;P2;durP2;ratioP2
29414;SDS011;20303;48.302;11.914;2024-02-14T00:05:48;6.70;;;3.20;;
29414;SDS011;20303;48.302;11.914;2024-02-14T00:15:49;6.55;;;3.10;;
29414;SDS011;20303;48.302;11.914;2024-02-14T00:25:51;4.75;;;3.03;;
29414;SDS011;20303;48.302;11.914;2024-02-14T00:35:52;4.57;;;2.70;;
29414;SDS011;20303;48.302;11.914;2024-02-14T00:45:53;7.80;;;2.80;;
29414;SDS011;20303;48.302;11.914;2024-02-14T00:55:56;4.05;;;2.47;;
29414;SDS011;20303;48.302;11.914;2024-02-14T01:05:57;6.47;;;3.00;;
29414;SDS011;20303;48.302;11.914;2024-02-14T01:15:58;4.93;;;2.67;;
29414;SDS011;20303;48.302;11.914;2024-02-14T01:25:59;3.70;;;2.42;;
29414;SDS011;20303;48.302;11.914;2024-02-14T01:36:02;4.97;;;2.55;;
29414;SDS011;20303;48.302;11.914;2024-02-14T01:46:06;3.40;;;2.20;;
29414;SDS011;20303;48.302;11.914;2024-02-14T01:56:08;2.88;;;1.92;;
29414;SDS011;20303;48.302;11.914;2024-02-14T02:06:09;4.88;;;2.08;;
29414;SDS011;20303;48.302;11.914;2024-02-14T02:16:10;3.67;;;2.10;;
29414;SDS011;20303;48.302;11.914;2024-02-14T02:26:12;2.70;;;1.80;;
29414;SDS011;20303;48.302;11.914;2024-02-14T02:36:13;2.42;;;1.77;;
29414;SDS011;20303;48.302;11.914;2024-02-14T02:46:16;3.28;;;1.98;;
29414;SDS011;20303;48.302;11.914;2024-02-14T02:56:17;3.83;;;2.08;;
29414;SDS011;20303;48.302;11.914;2024-02-14T03:06:18;2.20;;;1.58;;
29414;SDS011;20303;48.302;11.914;2024-02-14T03:16:20;4.65;;;1.83;;
29414;SDS011;20303;48.302;11.914;2024-02-14T03:26:21;2.53;;;1.80;;
29414;SDS011;20303;48.302;11.914;2024-02-14T03:36:22;2.22;;;1.63;;
29414;SDS011;20303;48.302;11.914;2024-02-14T03:46:27;2.38;;;1.58;;
29414;SDS011;20303;48.302;11.914;2024-02-14T03:56:28;2.08;;;1.50;;
29414;SDS011;20303;48.302;11.914;2024-02-14T04:06:30;3.97;;;1.48;;
29414;SDS011;20303;48.302;11.914;2024-02-14T04:16:31;3.83;;;1.50;;
29414;SDS011;20303;48.302;11.914;2024-02-14T04:26:33;2.72;;;1.73;;
29414;SDS011;20303;48.302;11.914;2024-02-14T04:36:34;3.22;;;1.38;;
29414;SDS011;20303;48.302;11.914;2024-02-14T04:46:35;2.47;;;1.33;;
29414;SDS011;20303;48.302;11.914;2024-02-14T04:56:37;2.70;;;1.58;;
29414;SDS011;20303;48.302;11.914;2024-02-14T05:06:39;1.70;;;1.15;;
29414;SDS011;20303;48.302;11.914;2024-02-14T05:16:41;1.30;;;1.10;;
29414;SDS011;20303;48.302;11.914;2024-02-14T05:26:42;1.58;;;1.30;;
29414;SDS011;20303;48.302;11.914;2024-02-14T05:36:43;2.50;;;1.30;;
29414;SDS011;20303;48.302;11.914;2024-02-14T05:46:45;2.08;;;1.20;;
29414;SDS011;20303;48.302;11.914;2024-02-14T05:56:47;1.23;;;0.95;;
29414;SDS011;20303;48.302;11.914;2024-02-14T06:06:48;1.35;;;1.00;;
29414;SDS011;20303;48.302;11.914;2024-02-14T06:16:49;3.28;;;1.13;;
29414;SDS011;20303;48.302;11.914;2024-02-14T06:26:50;5.85;;;1.30;;
29414;SDS011;20303;48.302;11.914;2024-02-14T06:36:52;2.40;;;1.10;;
29414;SDS011;20303;48.302;11.914;2024-02-14T06:46:53;2.08;;;1.10;;
29414;SDS011;20303;48.302;11.914;2024-02-14T06:56:54;3.35;;;1.20;;
29414;SDS011;20303;48.302;11.914;2024-02-14T07:06:55;4.25;;;1.45;;
29414;SDS011;20303;48.302;11.914;2024-02-14T07:16:56;2.65;;;1.60;;
29414;SDS011;20303;48.302;11.914;2024-02-14T07:26:57;3.10;;;1.95;;
29414;SDS011;20303;48.302;11.914;2024-02-14T07:36:58;5.60;;;2.17;;
29414;SDS011;20303;48.302;11.914;2024-02-14T07:46:59;6.88;;;2.72;;
29414;SDS011;20303;48.302;11.914;2024-02-14T07:57:01;4.63;;;2.60;;
29414;SDS011;20303;48.302;11.914;2024-02-14T08:07:02;6.88;;;2.78;;
29414;SDS011;20303;48.302;11.914;2024-02-14T08:17:03;5.35;;;2.90;;
29414;SDS011;20303;48.302;11.914;2024-02-14T08:27:04;7.57;;;2.83;;
29414;SDS011;20303;48.302;11.914;2024-02-14T08:37:06;5.18;;;2.85;;
29414;SDS011;20303;48.302;11.914;2024-02-14T08:47:08;4.65;;;2.65;;
29414;SDS011;20303;48.302;11.914;2024-02-14T08:57:09;4.93;;;2.72;;
29414;SDS011;20303;48.302;11.914;2024-02-14T09:07:12;7.93;;;3.05;;
29414;SDS011;20303;48.302;11.914;2024-02-14T09:17:13;5.25;;;2.63;;
29414;SDS011;20303;48.302;11.914;2024-02-14T09:27:15;5.68;;;2.70;;
29414;SDS011;20303;48.302;11.914;2024-02-14T09:37:16;3.42;;;2.15;;
29414;SDS011;20303;48.302;11.914;2024-02-14T09:47:18;4.60;;;2.55;;
29414;SDS011;20303;48.302;11.914;2024-02-14T09:57:20;4.80;;;2.28;;
29414;SDS011;20303;48.302;11.914;2024-02-14T10:07:21;3.97;;;2.30;;
29414;SDS011;20303;48.302;11.914;2024-02-14T10:17:22;4.82;;;2.50;;
29414;SDS011;20303;48.302;11.914;2024-02-14T10:27:23;3.28;;;1.98;;
29414;SDS011;20303;48.302;11.914;2024-02-14T10:37:26;2.88;;;2.00;;
29414;SDS011;20303;48.302;11.914;2024-02-14T10:47:30;4.22;;;2.10;;
29414;SDS011;20303;48.302;11.914;2024-02-14T10:57:32;2.80;;;1.80;;
29414;SDS011;20303;48.302;11.914;2024-02-14T11:07:33;5.70;;;2.35;;
29414;SDS011;20303;48.302;11.914;2024-02-14T11:17:34;3.25;;;1.90;;
29414;SDS011;20303;48.302;11.914;2024-02-14T11:27:35;2.70;;;1.70;;
29414;SDS011;20303;48.302;11.914;2024-02-14T11:37:36;3.75;;;1.85;;
29414;SDS011;20303;48.302;11.914;2024-02-14T11:47:37;2.35;;;1.52;;
29414;SDS011;20303;48.302;11.914;2024-02-14T11:57:38;3.10;;;1.75;;
29414;SDS011;20303;48.302;11.914;2024-02-14T12:07:39;4.28;;;1.73;;
29414;SDS011;20303;48.302;11.914;2024-02-14T12:17:41;2.95;;;1.50;;
29414;SDS011;20303;48.302;11.914;2024-02-14T12:27:42;2.28;;;1.50;;
29414;SDS011;20303;48.302;11.914;2024-02-14T12:37:51;2.28;;;1.52;;
29414;SDS011;20303;48.302;11.914;2024-02-14T12:47:53;2.75;;;1.60;;
29414;SDS011;20303;48.302;11.914;2024-02-14T12:57:55;2.45;;;1.50;;
29414;SDS011;20303;48.302;11.914;2024-02-14T13:07:56;3.33;;;1.60;;
29414;SDS011;20303;48.302;11.914;2024-02-14T13:17:58;1.95;;;1.40;;
29414;SDS011;20303;48.302;11.914;2024-02-14T13:28:00;2.72;;;1.70;;
29414;SDS011;20303;48.302;11.914;2024-02-14T13:38:01;2.88;;;1.42;;
29414;SDS011;20303;48.302;11.914;2024-02-14T13:48:03;4.07;;;1.50;;
29414;SDS011;20303;48.302;11.914;2024-02-14T13:58:04;3.97;;;1.42;;
29414;SDS011;20303;48.302;11.914;2024-02-14T14:08:05;7.10;;;2.05;;
29414;SDS011;20303;48.302;11.914;2024-02-14T14:18:06;9.45;;;2.03;;
29414;SDS011;20303;48.302;11.914;2024-02-14T14:28:08;10.27;;;2.10;;
29414;SDS011;20303;48.302;11.914;2024-02-14T14:38:09;7.75;;;2.00;;
29414;SDS011;20303;48.302;11.914;2024-02-14T14:48:10;8.00;;;2.00;;
29414;SDS011;20303;48.302;11.914;2024-02-14T14:58:12;4.78;;;2.03;;
29414;SDS011;20303;48.302;11.914;2024-02-14T15:08:13;3.13;;;1.85;;
29414;SDS011;20303;48.302;11.914;2024-02-14T15:18:17;11.73;;;2.35;;
29414;SDS011;20303;48.302;11.914;2024-02-14T15:28:18;4.95;;;2.00;;
29414;SDS011;20303;48.302;11.914;2024-02-14T15:38:26;6.38;;;2.25;;
29414;SDS011;20303;48.302;11.914;2024-02-14T15:48:28;8.00;;;2.40;;
29414;SDS011;20303;48.302;11.914;2024-02-14T15:58:29;6.72;;;2.42;;
29414;SDS011;20303;48.302;11.914;2024-02-14T16:08:30;6.00;;;2.30;;
29414;SDS011;20303;48.302;11.914;2024-02-14T16:18:31;6.75;;;2.80;;
29414;SDS011;20303;48.302;11.914;2024-02-14T16:28:32;9.20;;;2.72;;
29414;SDS011;20303;48.302;11.914;2024-02-14T16:38:34;6.10;;;2.53;;
29414;SDS011;20303;48.302;11.914;2024-02-14T16:48:35;5.32;;;2.15;;
29414;SDS011;20303;48.302;11.914;2024-02-14T16:58:36;6.00;;;2.50;;
29414;SDS011;20303;48.302;11.914;2024-02-14T17:08:37;9.68;;;2.33;;
29414;SDS011;20303;48.302;11.914;2024-02-14T17:18:38;7.85;;;2.25;;
29414;SDS011;20303;48.302;11.914;2024-02-14T17:28:40;9.05;;;2.33;;
29414;SDS011;20303;48.302;11.914;2024-02-14T17:38:41;5.95;;;2.42;;
29414;SDS011;20303;48.302;11.914;2024-02-14T17:48:42;7.18;;;2.45;;
29414;SDS011;20303;48.302;11.914;2024-02-14T17:58:43;4.63;;;2.17;;
29414;SDS011;20303;48.302;11.914;2024-02-14T18:08:44;11.52;;;2.35;;
29414;SDS011;20303;48.302;11.914;2024-02-14T18:18:46;8.10;;;2.28;;
29414;SDS011;20303;48.302;11.914;2024-02-14T18:28:47;8.13;;;2.22;;
29414;SDS011;20303;48.302;11.914;2024-02-14T18:38:50;9.23;;;2.45;;
29414;SDS011;20303;48.302;11.914;2024-02-14T18:48:52;5.22;;;1.98;;
29414;SDS011;20303;48.302;11.914;2024-02-14T18:58:53;5.95;;;2.15;;
29414;SDS011;20303;48.302;11.914;2024-02-14T19:08:54;6.68;;;2.10;;
29414;SDS011;20303;48.302;11.914;2024-02-14T19:18:56;6.38;;;2.67;;
29414;SDS011;20303;48.302;11.914;2024-02-14T19:28:57;7.05;;;3.20;;
29414;SDS011;20303;48.302;11.914;2024-02-14T19:38:58;5.97;;;2.88;;
29414;SDS011;20303;48.302;11.914;2024-02-14T19:48:59;13.95;;;3.40;;
29414;SDS011;20303;48.302;11.914;2024-02-14T19:59:00;9.98;;;3.47;;
29414;SDS011;20303;48.302;11.914;2024-02-14T20:09:01;7.32;;;3.45;;
29414;SDS011;20303;48.302;11.914;2024-02-14T20:19:03;7.95;;;3.90;;
29414;SDS011;20303;48.302;11.914;2024-02-14T20:29:04;8.35;;;3.65;;
29414;SDS011;20303;48.302;11.914;2024-02-14T20:39:05;6.93;;;3.63;;
29414;SDS011;20303;48.302;11.914;2024-02-14T20:49:07;7.40;;;3.78;;
29414;SDS011;20303;48.302;11.914;2024-02-14T20:59:08;12.10;;;3.92;;
29414;SDS011;20303;48.302;11.914;2024-02-14T21:09:10;9.63;;;4.00;;
29414;SDS011;20303;48.302;11.914;2024-02-14T21:19:11;6.63;;;3.47;;
29414;SDS011;20303;48.302;11.914;2024-02-14T21:29:12;9.43;;;3.78;;
29414;SDS011;20303;48.302;11.914;2024-02-14T21:39:13;5.60;;;3.08;;
29414;SDS011;20303;48.302;11.914;2024-02-14T21:49:15;5.45;;;3.40;;
29414;SDS011;20303;48.302;11.914;2024-02-14T21:59:19;6.25;;;3.33;;
29414;SDS011;20303;48.302;11.914;2024-02-14T22:09:20;5.95;;;2.97;;
29414;SDS011;20303;48.302;11.914;2024-02-14T22:19:23;6.32;;;3.22;;
29414;SDS011;20303;48.302;11.914;2024-02-14T22:29:24;9.20;;;3.22;;
29414;SDS011;20303;48.302;11.914;2024-02-14T22:39:25;4.97;;;3.00;;
29414;SDS011;20303;48.302;11.914;2024-02-14T22:49:26;7.45;;;2.72;;
29414;SDS011;20303;48.302;11.914;2024-02-14T22:59:27;4.43;;;2.80;;
29414;SDS011;20303;48.302;11.914;2024-02-14T23:09:29;4.65;;;2.75;;
29414;SDS011;20303;48.302;11.914;2024-02-14T23:19:31;5.47;;;2.83;;
29414;SDS011;20303;48.302;11.914;2024-02-14T23:29:32;5.97;;;3.00;;
29414;SDS011;20303;48.302;11.914;2024-02-14T23:39:33;6.22;;;2.58;;
29414;SDS011;20303;48.302;11.914;2024-02-14T23:49:34;5.03;;;2.75;;
29414;SDS011;20303;48.302;11.914;2024-02-14T23:59:37;7.90;;;2.83;;
